메인 페이지
METAR-TAF:

METAR-TAF

공항 :

난디 국제공항

나디, 피지

위도: 17-45S, 경도: 177-27E, 고도: 13m

현재 날씨관측

예보는 54분 전, 16:00시(UTC)에 발표되었습니다.
남동8kt
온도 23°C
습도 83%
기압 1017 hPa
시정 10km 이상
고도 2400ft 상공 구름 보통
고도 4600ft 상공 구름 보통
고도 10000ft 상공 구름 많음
약한이슬비,

METAR: NFFN 301600Z 13008KT 9999 -DZ SCT024 SCT046 BKN100 23/20 Q1017 NOSIG

시각: 04:54 (16:54 UTC)

예보

예보는 5 시간 41분 전, 11:13시(UTC)에 발표되었습니다.
예보 대상 시간: 30일 12시부터 31일 12시까지 (UTC)
남동6kt
시정 10km 이상
고도 3000ft 상공 구름 보통
확률 40% :
일시적
30일 12시부터 30일 24시까지 (UTC)
시정: 7000m
고도 1500ft 상공 구름 많음
소나기,

TAF: NFFN 301113Z 3012/3112 13006KT 9999 SCT030 PROB40 TEMPO 3012/3024 7000 SHRA BKN015

4,000개 이상의 공항 관측 자료 및 예보 (METAR 및 TAF 보고).

지도상에서 검색 가능한 기상관측소가 노란 점과 빨간 점으로 표시되어 있습니다.

기상관측소 명을 보려면 표시 위로 마우스를 이동하세요.

날씨 관측과 예보를 보려면 클릭하세요.

지도 변경 : 확대하려면 엑스 표시가 있는 녹색 버튼, 축소하려면 빼기 표시가 있는 녹색 버튼, 다음 페이지의 지도를 보려면 녹색 화살표를 클릭하세요.


METAR-TAF: